Terminal Aerodrome Forecast
Issued by NWS

Home | Current Version | Previous Version | Text Only | Print | Product List | Glossary On
Versions: 1 2 3 4 5 6 7 8 9 10 11 12 13 14 15 16 17 18 19 20 21 22 23 24 25 26 27
000
FTUS43 KEAX 200900 AAB
TAFMKC
TAF AMD
KMKC 200938Z 2010/2106 22009KT 6SM HZ SKC
     FM201400 24010KT P6SM SCT050
     FM202300 27007KT P6SM VCTS BKN050CB
      TEMPO 2023/2103 -TSRA=

USA.gov is the U.S. government's official web portal to all federal, state and local government web resources and services.